sensor_id;sensor_type;location;lat;lon;timestamp;P1;durP1;ratioP1;P2;durP2;ratioP2
21941;SDS011;11135;54.192;15.670;2023-08-06T00:01:19;10.48;;;4.57;;
21941;SDS011;11135;54.192;15.670;2023-08-06T00:04:25;8.60;;;4.10;;
21941;SDS011;11135;54.192;15.670;2023-08-06T00:07:33;9.75;;;4.90;;
21941;SDS011;11135;54.192;15.670;2023-08-06T00:10:39;7.10;;;4.72;;
21941;SDS011;11135;54.192;15.670;2023-08-06T00:13:45;8.90;;;4.07;;
21941;SDS011;11135;54.192;15.670;2023-08-06T00:16:52;8.27;;;4.78;;
21941;SDS011;11135;54.192;15.670;2023-08-06T00:19:57;7.22;;;3.97;;
21941;SDS011;11135;54.192;15.670;2023-08-06T00:23:09;8.80;;;4.85;;
21941;SDS011;11135;54.192;15.670;2023-08-06T00:26:15;7.45;;;4.75;;
21941;SDS011;11135;54.192;15.670;2023-08-06T00:29:21;11.55;;;4.63;;
21941;SDS011;11135;54.192;15.670;2023-08-06T00:32:26;9.52;;;5.10;;
21941;SDS011;11135;54.192;15.670;2023-08-06T00:35:36;8.40;;;4.60;;
21941;SDS011;11135;54.192;15.670;2023-08-06T00:38:45;9.10;;;4.80;;
21941;SDS011;11135;54.192;15.670;2023-08-06T00:41:57;10.15;;;5.45;;
21941;SDS011;11135;54.192;15.670;2023-08-06T00:45:03;8.23;;;5.28;;
21941;SDS011;11135;54.192;15.670;2023-08-06T00:48:11;10.25;;;5.38;;
21941;SDS011;11135;54.192;15.670;2023-08-06T00:51:17;9.98;;;4.55;;
21941;SDS011;11135;54.192;15.670;2023-08-06T00:54:28;9.07;;;4.28;;
21941;SDS011;11135;54.192;15.670;2023-08-06T00:57:34;7.10;;;3.63;;
21941;SDS011;11135;54.192;15.670;2023-08-06T01:00:40;7.50;;;4.22;;
21941;SDS011;11135;54.192;15.670;2023-08-06T01:03:45;7.25;;;3.80;;
21941;SDS011;11135;54.192;15.670;2023-08-06T01:06:53;9.02;;;4.20;;
21941;SDS011;11135;54.192;15.670;2023-08-06T01:10:10;6.13;;;3.60;;
21941;SDS011;11135;54.192;15.670;2023-08-06T01:13:23;6.03;;;4.10;;
21941;SDS011;11135;54.192;15.670;2023-08-06T01:16:30;5.93;;;3.53;;
21941;SDS011;11135;54.192;15.670;2023-08-06T01:19:37;8.05;;;4.38;;
21941;SDS011;11135;54.192;15.670;2023-08-06T01:22:45;4.13;;;3.22;;
21941;SDS011;11135;54.192;15.670;2023-08-06T01:26:00;6.07;;;3.67;;
21941;SDS011;11135;54.192;15.670;2023-08-06T01:29:10;5.78;;;4.00;;
21941;SDS011;11135;54.192;15.670;2023-08-06T01:32:19;7.22;;;3.85;;
21941;SDS011;11135;54.192;15.670;2023-08-06T01:35:28;5.60;;;3.85;;
21941;SDS011;11135;54.192;15.670;2023-08-06T01:38:36;6.75;;;4.05;;
21941;SDS011;11135;54.192;15.670;2023-08-06T01:41:44;5.75;;;3.40;;
21941;SDS011;11135;54.192;15.670;2023-08-06T01:44:50;7.68;;;4.28;;
21941;SDS011;11135;54.192;15.670;2023-08-06T01:47:57;7.10;;;4.28;;
21941;SDS011;11135;54.192;15.670;2023-08-06T01:51:03;6.60;;;3.90;;
21941;SDS011;11135;54.192;15.670;2023-08-06T01:54:12;5.88;;;4.20;;
21941;SDS011;11135;54.192;15.670;2023-08-06T01:57:17;6.53;;;3.85;;
21941;SDS011;11135;54.192;15.670;2023-08-06T02:00:27;6.72;;;4.28;;
21941;SDS011;11135;54.192;15.670;2023-08-06T02:03:34;5.80;;;4.10;;
21941;SDS011;11135;54.192;15.670;2023-08-06T02:06:47;8.27;;;4.88;;
21941;SDS011;11135;54.192;15.670;2023-08-06T02:09:55;8.27;;;3.85;;
21941;SDS011;11135;54.192;15.670;2023-08-06T02:13:02;8.38;;;4.25;;
21941;SDS011;11135;54.192;15.670;2023-08-06T02:16:08;6.13;;;4.43;;
21941;SDS011;11135;54.192;15.670;2023-08-06T02:19:18;7.95;;;4.90;;
21941;SDS011;11135;54.192;15.670;2023-08-06T02:22:26;8.13;;;5.00;;
21941;SDS011;11135;54.192;15.670;2023-08-06T02:25:36;9.18;;;4.75;;
21941;SDS011;11135;54.192;15.670;2023-08-06T02:28:44;6.85;;;5.20;;
21941;SDS011;11135;54.192;15.670;2023-08-06T02:31:49;9.32;;;5.07;;
21941;SDS011;11135;54.192;15.670;2023-08-06T02:34:58;7.20;;;4.93;;
21941;SDS011;11135;54.192;15.670;2023-08-06T02:38:03;7.65;;;4.40;;
21941;SDS011;11135;54.192;15.670;2023-08-06T02:41:11;7.60;;;4.35;;
21941;SDS011;11135;54.192;15.670;2023-08-06T02:44:18;7.18;;;4.35;;
21941;SDS011;11135;54.192;15.670;2023-08-06T02:47:23;9.35;;;4.70;;
21941;SDS011;11135;54.192;15.670;2023-08-06T02:50:29;9.73;;;5.10;;
21941;SDS011;11135;54.192;15.670;2023-08-06T02:53:35;8.23;;;4.40;;
21941;SDS011;11135;54.192;15.670;2023-08-06T02:56:45;8.85;;;4.63;;
21941;SDS011;11135;54.192;15.670;2023-08-06T02:59:51;6.85;;;4.43;;
21941;SDS011;11135;54.192;15.670;2023-08-06T03:02:57;7.03;;;4.53;;
21941;SDS011;11135;54.192;15.670;2023-08-06T03:06:03;8.80;;;4.28;;
21941;SDS011;11135;54.192;15.670;2023-08-06T03:09:08;7.18;;;4.40;;
21941;SDS011;11135;54.192;15.670;2023-08-06T03:12:17;7.18;;;4.00;;
21941;SDS011;11135;54.192;15.670;2023-08-06T03:15:22;6.07;;;4.07;;
21941;SDS011;11135;54.192;15.670;2023-08-06T03:18:28;6.55;;;4.40;;
21941;SDS011;11135;54.192;15.670;2023-08-06T03:21:36;6.18;;;4.18;;
21941;SDS011;11135;54.192;15.670;2023-08-06T03:24:45;6.22;;;3.90;;
21941;SDS011;11135;54.192;15.670;2023-08-06T03:27:52;5.65;;;3.95;;
21941;SDS011;11135;54.192;15.670;2023-08-06T03:31:01;6.97;;;3.90;;
21941;SDS011;11135;54.192;15.670;2023-08-06T03:34:07;6.30;;;3.78;;
21941;SDS011;11135;54.192;15.670;2023-08-06T03:37:13;6.75;;;3.45;;
21941;SDS011;11135;54.192;15.670;2023-08-06T03:40:18;6.82;;;3.63;;
21941;SDS011;11135;54.192;15.670;2023-08-06T03:43:27;7.10;;;3.97;;
21941;SDS011;11135;54.192;15.670;2023-08-06T03:46:33;4.80;;;3.40;;
21941;SDS011;11135;54.192;15.670;2023-08-06T03:49:38;5.47;;;3.63;;
21941;SDS011;11135;54.192;15.670;2023-08-06T03:52:45;6.88;;;3.33;;
21941;SDS011;11135;54.192;15.670;2023-08-06T03:55:54;7.80;;;3.90;;
21941;SDS011;11135;54.192;15.670;2023-08-06T03:59:05;5.13;;;3.22;;
21941;SDS011;11135;54.192;15.670;2023-08-06T04:02:11;4.85;;;3.33;;
21941;SDS011;11135;54.192;15.670;2023-08-06T04:05:16;4.65;;;2.72;;
21941;SDS011;11135;54.192;15.670;2023-08-06T04:08:22;4.30;;;2.60;;
21941;SDS011;11135;54.192;15.670;2023-08-06T04:11:31;4.28;;;2.20;;
21941;SDS011;11135;54.192;15.670;2023-08-06T04:14:40;4.20;;;2.60;;
21941;SDS011;11135;54.192;15.670;2023-08-06T04:17:46;5.35;;;2.28;;
21941;SDS011;11135;54.192;15.670;2023-08-06T04:20:52;3.92;;;2.30;;
21941;SDS011;11135;54.192;15.670;2023-08-06T04:23:59;5.82;;;2.40;;
21941;SDS011;11135;54.192;15.670;2023-08-06T04:27:11;3.67;;;2.50;;
21941;SDS011;11135;54.192;15.670;2023-08-06T04:30:19;3.90;;;2.53;;
21941;SDS011;11135;54.192;15.670;2023-08-06T04:33:25;4.10;;;2.78;;
21941;SDS011;11135;54.192;15.670;2023-08-06T04:36:31;7.82;;;2.95;;
21941;SDS011;11135;54.192;15.670;2023-08-06T04:39:36;4.63;;;2.53;;
21941;SDS011;11135;54.192;15.670;2023-08-06T04:42:42;5.70;;;3.00;;
21941;SDS011;11135;54.192;15.670;2023-08-06T04:45:54;3.80;;;2.95;;
21941;SDS011;11135;54.192;15.670;2023-08-06T04:48:59;5.53;;;2.70;;
21941;SDS011;11135;54.192;15.670;2023-08-06T04:52:05;4.88;;;2.60;;
21941;SDS011;11135;54.192;15.670;2023-08-06T04:55:11;4.55;;;2.40;;
21941;SDS011;11135;54.192;15.670;2023-08-06T04:58:16;4.93;;;2.50;;
21941;SDS011;11135;54.192;15.670;2023-08-06T05:01:26;5.05;;;3.00;;
21941;SDS011;11135;54.192;15.670;2023-08-06T05:04:32;5.55;;;2.88;;
21941;SDS011;11135;54.192;15.670;2023-08-06T05:07:38;3.92;;;2.67;;
21941;SDS011;11135;54.192;15.670;2023-08-06T05:10:45;5.00;;;2.45;;
21941;SDS011;11135;54.192;15.670;2023-08-06T05:13:53;4.78;;;2.58;;
21941;SDS011;11135;54.192;15.670;2023-08-06T05:17:03;4.95;;;3.10;;
21941;SDS011;11135;54.192;15.670;2023-08-06T05:20:09;5.28;;;3.10;;
21941;SDS011;11135;54.192;15.670;2023-08-06T05:23:15;4.32;;;2.53;;
21941;SDS011;11135;54.192;15.670;2023-08-06T05:26:20;4.97;;;3.28;;
21941;SDS011;11135;54.192;15.670;2023-08-06T05:29:32;4.80;;;2.40;;
21941;SDS011;11135;54.192;15.670;2023-08-06T05:32:40;3.92;;;2.40;;
21941;SDS011;11135;54.192;15.670;2023-08-06T05:35:46;3.83;;;2.33;;
21941;SDS011;11135;54.192;15.670;2023-08-06T05:38:51;3.92;;;2.75;;
21941;SDS011;11135;54.192;15.670;2023-08-06T05:41:57;4.63;;;2.85;;
21941;SDS011;11135;54.192;15.670;2023-08-06T05:45:08;6.75;;;3.15;;
21941;SDS011;11135;54.192;15.670;2023-08-06T05:48:17;5.07;;;3.13;;
21941;SDS011;11135;54.192;15.670;2023-08-06T05:51:25;6.35;;;3.42;;
21941;SDS011;11135;54.192;15.670;2023-08-06T05:54:33;5.00;;;3.45;;
21941;SDS011;11135;54.192;15.670;2023-08-06T05:57:41;6.55;;;3.92;;
21941;SDS011;11135;54.192;15.670;2023-08-06T06:00:46;7.57;;;3.97;;
21941;SDS011;11135;54.192;15.670;2023-08-06T06:03:58;6.97;;;4.05;;
21941;SDS011;11135;54.192;15.670;2023-08-06T06:07:10;10.32;;;3.72;;
21941;SDS011;11135;54.192;15.670;2023-08-06T06:10:16;8.00;;;3.95;;
21941;SDS011;11135;54.192;15.670;2023-08-06T06:13:24;6.45;;;3.55;;
21941;SDS011;11135;54.192;15.670;2023-08-06T06:16:30;5.88;;;3.15;;
21941;SDS011;11135;54.192;15.670;2023-08-06T06:19:38;8.68;;;3.58;;
21941;SDS011;11135;54.192;15.670;2023-08-06T06:22:51;7.57;;;2.88;;
21941;SDS011;11135;54.192;15.670;2023-08-06T06:25:57;5.70;;;2.78;;
21941;SDS011;11135;54.192;15.670;2023-08-06T06:29:02;4.25;;;2.22;;
21941;SDS011;11135;54.192;15.670;2023-08-06T06:32:09;6.15;;;3.42;;
21941;SDS011;11135;54.192;15.670;2023-08-06T06:35:19;7.97;;;2.20;;
21941;SDS011;11135;54.192;15.670;2023-08-06T06:38:25;5.13;;;1.95;;
21941;SDS011;11135;54.192;15.670;2023-08-06T06:41:30;8.80;;;2.53;;
21941;SDS011;11135;54.192;15.670;2023-08-06T06:44:36;5.82;;;2.38;;
21941;SDS011;11135;54.192;15.670;2023-08-06T06:47:43;5.63;;;1.88;;
21941;SDS011;11135;54.192;15.670;2023-08-06T06:50:51;6.50;;;2.45;;
21941;SDS011;11135;54.192;15.670;2023-08-06T06:53:57;6.78;;;2.50;;
21941;SDS011;11135;54.192;15.670;2023-08-06T06:57:04;7.75;;;2.45;;
21941;SDS011;11135;54.192;15.670;2023-08-06T07:00:10;9.32;;;2.92;;
21941;SDS011;11135;54.192;15.670;2023-08-06T07:03:16;5.13;;;2.65;;
21941;SDS011;11135;54.192;15.670;2023-08-06T07:06:24;7.82;;;2.80;;
21941;SDS011;11135;54.192;15.670;2023-08-06T07:09:29;3.95;;;2.58;;
21941;SDS011;11135;54.192;15.670;2023-08-06T07:12:36;6.13;;;2.55;;
21941;SDS011;11135;54.192;15.670;2023-08-06T07:15:42;5.57;;;2.65;;
21941;SDS011;11135;54.192;15.670;2023-08-06T07:18:51;8.65;;;2.92;;
21941;SDS011;11135;54.192;15.670;2023-08-06T07:22:00;6.38;;;2.90;;
21941;SDS011;11135;54.192;15.670;2023-08-06T07:25:05;8.23;;;3.55;;
21941;SDS011;11135;54.192;15.670;2023-08-06T07:28:11;7.38;;;2.78;;
21941;SDS011;11135;54.192;15.670;2023-08-06T07:31:16;3.58;;;2.17;;
21941;SDS011;11135;54.192;15.670;2023-08-06T07:34:24;8.20;;;2.83;;
21941;SDS011;11135;54.192;15.670;2023-08-06T07:37:32;8.93;;;4.38;;
21941;SDS011;11135;54.192;15.670;2023-08-06T07:40:50;7.00;;;2.55;;
21941;SDS011;11135;54.192;15.670;2023-08-06T07:43:55;5.68;;;2.00;;
21941;SDS011;11135;54.192;15.670;2023-08-06T07:47:01;5.68;;;2.67;;
21941;SDS011;11135;54.192;15.670;2023-08-06T07:50:07;6.22;;;2.88;;
21941;SDS011;11135;54.192;15.670;2023-08-06T07:53:15;9.68;;;3.25;;
21941;SDS011;11135;54.192;15.670;2023-08-06T07:56:20;9.00;;;3.03;;
21941;SDS011;11135;54.192;15.670;2023-08-06T07:59:27;8.90;;;2.60;;
21941;SDS011;11135;54.192;15.670;2023-08-06T08:02:33;10.43;;;2.60;;
21941;SDS011;11135;54.192;15.670;2023-08-06T08:05:39;8.00;;;3.38;;
21941;SDS011;11135;54.192;15.670;2023-08-06T08:08:47;10.63;;;3.63;;
21941;SDS011;11135;54.192;15.670;2023-08-06T08:11:54;5.88;;;2.83;;
21941;SDS011;11135;54.192;15.670;2023-08-06T08:15:02;11.60;;;4.60;;
21941;SDS011;11135;54.192;15.670;2023-08-06T08:18:08;8.73;;;3.25;;
21941;SDS011;11135;54.192;15.670;2023-08-06T08:21:13;10.93;;;3.85;;
21941;SDS011;11135;54.192;15.670;2023-08-06T08:24:25;5.10;;;2.70;;
21941;SDS011;11135;54.192;15.670;2023-08-06T08:27:33;8.35;;;3.25;;
21941;SDS011;11135;54.192;15.670;2023-08-06T08:30:40;11.38;;;4.13;;
21941;SDS011;11135;54.192;15.670;2023-08-06T08:33:46;14.43;;;4.00;;
21941;SDS011;11135;54.192;15.670;2023-08-06T08:36:58;8.88;;;3.30;;
21941;SDS011;11135;54.192;15.670;2023-08-06T08:40:10;20.45;;;5.30;;
21941;SDS011;11135;54.192;15.670;2023-08-06T08:43:19;10.77;;;3.67;;
21941;SDS011;11135;54.192;15.670;2023-08-06T08:46:29;12.65;;;3.60;;
21941;SDS011;11135;54.192;15.670;2023-08-06T08:49:40;18.20;;;5.10;;
21941;SDS011;11135;54.192;15.670;2023-08-06T08:52:45;12.48;;;3.85;;
21941;SDS011;11135;54.192;15.670;2023-08-06T08:55:54;12.77;;;3.42;;
21941;SDS011;11135;54.192;15.670;2023-08-06T08:59:01;19.15;;;4.13;;
21941;SDS011;11135;54.192;15.670;2023-08-06T09:02:10;12.38;;;3.85;;
21941;SDS011;11135;54.192;15.670;2023-08-06T09:05:16;15.77;;;4.03;;
21941;SDS011;11135;54.192;15.670;2023-08-06T09:08:24;9.95;;;3.15;;
21941;SDS011;11135;54.192;15.670;2023-08-06T09:11:36;13.23;;;3.65;;
21941;SDS011;11135;54.192;15.670;2023-08-06T09:14:46;12.48;;;2.97;;
21941;SDS011;11135;54.192;15.670;2023-08-06T09:17:53;12.77;;;3.50;;
21941;SDS011;11135;54.192;15.670;2023-08-06T09:21:02;7.20;;;2.47;;
21941;SDS011;11135;54.192;15.670;2023-08-06T09:24:08;9.25;;;2.88;;
21941;SDS011;11135;54.192;15.670;2023-08-06T09:27:19;15.13;;;4.00;;
21941;SDS011;11135;54.192;15.670;2023-08-06T09:30:28;8.85;;;2.10;;
21941;SDS011;11135;54.192;15.670;2023-08-06T09:33:37;8.40;;;2.95;;
21941;SDS011;11135;54.192;15.670;2023-08-06T09:36:45;7.60;;;2.55;;
21941;SDS011;11135;54.192;15.670;2023-08-06T09:39:53;10.52;;;3.33;;
21941;SDS011;11135;54.192;15.670;2023-08-06T09:43:01;8.68;;;2.15;;
21941;SDS011;11135;54.192;15.670;2023-08-06T09:46:11;6.43;;;2.13;;
21941;SDS011;11135;54.192;15.670;2023-08-06T09:49:20;11.55;;;2.70;;
21941;SDS011;11135;54.192;15.670;2023-08-06T09:52:28;7.07;;;2.55;;
21941;SDS011;11135;54.192;15.670;2023-08-06T09:55:34;6.30;;;2.22;;
21941;SDS011;11135;54.192;15.670;2023-08-06T09:58:46;9.18;;;2.22;;
21941;SDS011;11135;54.192;15.670;2023-08-06T10:01:54;5.45;;;2.22;;
21941;SDS011;11135;54.192;15.670;2023-08-06T10:05:00;5.20;;;2.28;;
21941;SDS011;11135;54.192;15.670;2023-08-06T10:08:07;6.80;;;2.70;;
21941;SDS011;11135;54.192;15.670;2023-08-06T10:11:13;4.60;;;1.60;;
21941;SDS011;11135;54.192;15.670;2023-08-06T10:14:24;2.15;;;1.38;;
21941;SDS011;11135;54.192;15.670;2023-08-06T10:17:37;8.18;;;2.10;;
21941;SDS011;11135;54.192;15.670;2023-08-06T10:20:52;6.18;;;1.50;;
21941;SDS011;11135;54.192;15.670;2023-08-06T10:23:57;4.05;;;1.70;;
21941;SDS011;11135;54.192;15.670;2023-08-06T10:27:04;5.38;;;1.73;;
21941;SDS011;11135;54.192;15.670;2023-08-06T10:30:27;4.38;;;1.92;;
21941;SDS011;11135;54.192;15.670;2023-08-06T10:33:40;8.00;;;1.90;;
21941;SDS011;11135;54.192;15.670;2023-08-06T10:36:47;4.32;;;1.30;;
21941;SDS011;11135;54.192;15.670;2023-08-06T10:40:00;6.15;;;2.13;;
21941;SDS011;11135;54.192;15.670;2023-08-06T10:43:06;7.95;;;1.75;;
21941;SDS011;11135;54.192;15.670;2023-08-06T10:46:23;7.22;;;2.38;;
21941;SDS011;11135;54.192;15.670;2023-08-06T10:49:29;4.20;;;1.55;;
21941;SDS011;11135;54.192;15.670;2023-08-06T10:52:35;6.60;;;2.25;;
21941;SDS011;11135;54.192;15.670;2023-08-06T10:55:40;3.55;;;1.42;;
21941;SDS011;11135;54.192;15.670;2023-08-06T10:58:46;7.85;;;2.20;;
21941;SDS011;11135;54.192;15.670;2023-08-06T11:01:56;4.65;;;1.88;;
21941;SDS011;11135;54.192;15.670;2023-08-06T11:05:05;4.78;;;1.70;;
21941;SDS011;11135;54.192;15.670;2023-08-06T11:08:12;6.45;;;1.75;;
21941;SDS011;11135;54.192;15.670;2023-08-06T11:11:18;7.35;;;1.95;;
21941;SDS011;11135;54.192;15.670;2023-08-06T11:14:26;4.57;;;2.42;;
21941;SDS011;11135;54.192;15.670;2023-08-06T11:17:35;5.38;;;1.90;;
21941;SDS011;11135;54.192;15.670;2023-08-06T11:20:42;6.28;;;1.85;;
21941;SDS011;11135;54.192;15.670;2023-08-06T11:23:48;6.25;;;1.80;;
21941;SDS011;11135;54.192;15.670;2023-08-06T11:26:53;6.05;;;1.80;;
21941;SDS011;11135;54.192;15.670;2023-08-06T11:30:01;8.30;;;3.00;;
21941;SDS011;11135;54.192;15.670;2023-08-06T11:33:10;7.55;;;1.88;;
21941;SDS011;11135;54.192;15.670;2023-08-06T11:36:29;9.88;;;2.53;;
21941;SDS011;11135;54.192;15.670;2023-08-06T11:39:38;7.53;;;2.28;;
21941;SDS011;11135;54.192;15.670;2023-08-06T11:42:44;9.45;;;2.70;;
21941;SDS011;11135;54.192;15.670;2023-08-06T11:45:57;9.65;;;2.28;;
21941;SDS011;11135;54.192;15.670;2023-08-06T11:49:05;8.82;;;2.67;;
21941;SDS011;11135;54.192;15.670;2023-08-06T11:52:15;7.43;;;2.17;;
21941;SDS011;11135;54.192;15.670;2023-08-06T11:55:22;8.20;;;2.28;;
21941;SDS011;11135;54.192;15.670;2023-08-06T11:58:29;6.20;;;1.77;;
21941;SDS011;11135;54.192;15.670;2023-08-06T12:01:36;7.78;;;1.70;;
21941;SDS011;11135;54.192;15.670;2023-08-06T12:08:08;6.75;;;1.45;;
21941;SDS011;11135;54.192;15.670;2023-08-06T12:11:20;5.63;;;1.45;;
21941;SDS011;11135;54.192;15.670;2023-08-06T12:14:26;4.13;;;1.35;;
21941;SDS011;11135;54.192;15.670;2023-08-06T12:17:32;4.78;;;1.27;;
21941;SDS011;11135;54.192;15.670;2023-08-06T12:20:38;4.50;;;1.02;;
21941;SDS011;11135;54.192;15.670;2023-08-06T12:23:49;4.63;;;1.42;;
21941;SDS011;11135;54.192;15.670;2023-08-06T12:26:57;5.40;;;1.20;;
21941;SDS011;11135;54.192;15.670;2023-08-06T12:30:08;6.70;;;1.10;;
21941;SDS011;11135;54.192;15.670;2023-08-06T12:33:15;4.65;;;1.35;;
21941;SDS011;11135;54.192;15.670;2023-08-06T12:36:21;5.43;;;1.20;;
21941;SDS011;11135;54.192;15.670;2023-08-06T12:39:29;7.03;;;1.33;;
21941;SDS011;11135;54.192;15.670;2023-08-06T12:42:38;10.73;;;1.77;;
21941;SDS011;11135;54.192;15.670;2023-08-06T12:45:44;5.50;;;1.30;;
21941;SDS011;11135;54.192;15.670;2023-08-06T12:48:51;7.20;;;1.60;;
21941;SDS011;11135;54.192;15.670;2023-08-06T12:51:57;7.70;;;1.70;;
21941;SDS011;11135;54.192;15.670;2023-08-06T12:55:08;7.97;;;2.03;;
21941;SDS011;11135;54.192;15.670;2023-08-06T12:58:16;4.15;;;1.23;;
21941;SDS011;11135;54.192;15.670;2023-08-06T13:01:22;8.95;;;1.50;;
21941;SDS011;11135;54.192;15.670;2023-08-06T13:04:28;12.18;;;2.00;;
21941;SDS011;11135;54.192;15.670;2023-08-06T13:07:37;16.85;;;2.63;;
21941;SDS011;11135;54.192;15.670;2023-08-06T13:10:45;23.45;;;3.80;;
21941;SDS011;11135;54.192;15.670;2023-08-06T13:13:51;16.42;;;4.28;;
21941;SDS011;11135;54.192;15.670;2023-08-06T13:16:58;9.38;;;2.08;;
21941;SDS011;11135;54.192;15.670;2023-08-06T13:20:05;8.13;;;1.70;;
21941;SDS011;11135;54.192;15.670;2023-08-06T13:23:10;3.90;;;1.13;;
21941;SDS011;11135;54.192;15.670;2023-08-06T13:26:23;9.63;;;1.83;;
21941;SDS011;11135;54.192;15.670;2023-08-06T13:29:33;5.85;;;1.60;;
21941;SDS011;11135;54.192;15.670;2023-08-06T13:32:41;14.75;;;1.63;;
21941;SDS011;11135;54.192;15.670;2023-08-06T13:35:50;7.32;;;1.40;;
21941;SDS011;11135;54.192;15.670;2023-08-06T13:38:57;11.25;;;2.28;;
21941;SDS011;11135;54.192;15.670;2023-08-06T13:42:06;8.48;;;1.98;;
21941;SDS011;11135;54.192;15.670;2023-08-06T13:45:13;6.80;;;1.38;;
21941;SDS011;11135;54.192;15.670;2023-08-06T13:48:18;11.73;;;2.03;;
21941;SDS011;11135;54.192;15.670;2023-08-06T13:51:26;11.20;;;2.05;;
21941;SDS011;11135;54.192;15.670;2023-08-06T13:54:31;3.90;;;0.90;;
21941;SDS011;11135;54.192;15.670;2023-08-06T13:57:40;10.23;;;2.28;;
21941;SDS011;11135;54.192;15.670;2023-08-06T14:00:49;5.47;;;1.77;;
21941;SDS011;11135;54.192;15.670;2023-08-06T14:03:56;6.80;;;1.40;;
21941;SDS011;11135;54.192;15.670;2023-08-06T14:07:02;4.68;;;1.38;;
21941;SDS011;11135;54.192;15.670;2023-08-06T14:10:09;4.63;;;1.40;;
21941;SDS011;11135;54.192;15.670;2023-08-06T14:13:16;6.00;;;1.40;;
21941;SDS011;11135;54.192;15.670;2023-08-06T14:16:22;11.32;;;1.70;;
21941;SDS011;11135;54.192;15.670;2023-08-06T14:19:28;7.15;;;1.58;;
21941;SDS011;11135;54.192;15.670;2023-08-06T14:22:38;8.48;;;1.88;;
21941;SDS011;11135;54.192;15.670;2023-08-06T14:25:45;8.05;;;1.42;;
21941;SDS011;11135;54.192;15.670;2023-08-06T14:28:55;5.28;;;1.23;;
21941;SDS011;11135;54.192;15.670;2023-08-06T14:32:01;5.82;;;1.63;;
21941;SDS011;11135;54.192;15.670;2023-08-06T14:35:08;7.95;;;1.77;;
21941;SDS011;11135;54.192;15.670;2023-08-06T14:38:13;8.80;;;1.80;;
21941;SDS011;11135;54.192;15.670;2023-08-06T14:41:23;4.05;;;1.70;;
21941;SDS011;11135;54.192;15.670;2023-08-06T14:44:32;9.95;;;2.33;;
21941;SDS011;11135;54.192;15.670;2023-08-06T14:47:39;8.48;;;3.10;;
21941;SDS011;11135;54.192;15.670;2023-08-06T14:50:48;12.20;;;2.33;;
21941;SDS011;11135;54.192;15.670;2023-08-06T14:53:57;6.18;;;1.58;;
21941;SDS011;11135;54.192;15.670;2023-08-06T14:57:04;8.98;;;1.67;;
21941;SDS011;11135;54.192;15.670;2023-08-06T15:00:17;11.35;;;2.20;;
21941;SDS011;11135;54.192;15.670;2023-08-06T15:03:26;9.70;;;1.92;;
21941;SDS011;11135;54.192;15.670;2023-08-06T15:06:35;6.65;;;1.40;;
21941;SDS011;11135;54.192;15.670;2023-08-06T15:09:41;8.82;;;2.03;;
21941;SDS011;11135;54.192;15.670;2023-08-06T15:13:08;11.90;;;2.72;;
21941;SDS011;11135;54.192;15.670;2023-08-06T15:16:17;10.40;;;1.85;;
21941;SDS011;11135;54.192;15.670;2023-08-06T15:19:26;8.38;;;1.60;;
21941;SDS011;11135;54.192;15.670;2023-08-06T15:22:31;12.10;;;2.35;;
21941;SDS011;11135;54.192;15.670;2023-08-06T15:25:37;13.80;;;2.33;;
21941;SDS011;11135;54.192;15.670;2023-08-06T15:28:43;13.70;;;3.05;;
21941;SDS011;11135;54.192;15.670;2023-08-06T15:31:52;15.80;;;3.17;;
21941;SDS011;11135;54.192;15.670;2023-08-06T15:34:58;9.50;;;1.80;;
21941;SDS011;11135;54.192;15.670;2023-08-06T15:38:08;16.73;;;2.65;;
21941;SDS011;11135;54.192;15.670;2023-08-06T15:41:15;29.95;;;3.58;;
21941;SDS011;11135;54.192;15.670;2023-08-06T15:44:23;15.27;;;2.63;;
21941;SDS011;11135;54.192;15.670;2023-08-06T15:47:33;18.95;;;3.65;;
21941;SDS011;11135;54.192;15.670;2023-08-06T15:50:43;15.70;;;2.45;;
21941;SDS011;11135;54.192;15.670;2023-08-06T15:53:51;15.38;;;2.10;;
21941;SDS011;11135;54.192;15.670;2023-08-06T15:56:58;9.98;;;2.40;;
21941;SDS011;11135;54.192;15.670;2023-08-06T16:00:04;9.00;;;1.73;;
21941;SDS011;11135;54.192;15.670;2023-08-06T16:03:14;12.20;;;2.15;;
21941;SDS011;11135;54.192;15.670;2023-08-06T16:06:22;14.63;;;2.53;;
21941;SDS011;11135;54.192;15.670;2023-08-06T16:09:30;7.00;;;1.48;;
21941;SDS011;11135;54.192;15.670;2023-08-06T16:12:39;15.13;;;1.90;;
21941;SDS011;11135;54.192;15.670;2023-08-06T16:15:46;12.50;;;2.17;;
21941;SDS011;11135;54.192;15.670;2023-08-06T16:22:12;12.13;;;2.38;;
21941;SDS011;11135;54.192;15.670;2023-08-06T16:25:20;9.05;;;1.70;;
21941;SDS011;11135;54.192;15.670;2023-08-06T16:28:27;12.52;;;3.00;;
21941;SDS011;11135;54.192;15.670;2023-08-06T16:31:39;8.80;;;2.47;;
21941;SDS011;11135;54.192;15.670;2023-08-06T16:34:50;9.65;;;1.95;;
21941;SDS011;11135;54.192;15.670;2023-08-06T16:37:56;10.80;;;1.92;;
21941;SDS011;11135;54.192;15.670;2023-08-06T16:41:04;15.38;;;2.78;;
21941;SDS011;11135;54.192;15.670;2023-08-06T16:44:15;8.98;;;1.65;;
21941;SDS011;11135;54.192;15.670;2023-08-06T16:47:22;7.45;;;1.30;;
21941;SDS011;11135;54.192;15.670;2023-08-06T16:50:34;7.78;;;2.17;;
21941;SDS011;11135;54.192;15.670;2023-08-06T16:53:42;8.32;;;1.20;;
21941;SDS011;11135;54.192;15.670;2023-08-06T16:56:50;8.52;;;1.30;;
21941;SDS011;11135;54.192;15.670;2023-08-06T16:59:57;8.95;;;2.25;;
21941;SDS011;11135;54.192;15.670;2023-08-06T17:03:03;11.73;;;2.40;;
21941;SDS011;11135;54.192;15.670;2023-08-06T17:06:12;5.28;;;1.40;;
21941;SDS011;11135;54.192;15.670;2023-08-06T17:09:19;9.10;;;1.55;;
21941;SDS011;11135;54.192;15.670;2023-08-06T17:12:25;6.45;;;1.77;;
21941;SDS011;11135;54.192;15.670;2023-08-06T17:15:31;12.05;;;2.00;;
21941;SDS011;11135;54.192;15.670;2023-08-06T17:18:43;8.85;;;1.80;;
21941;SDS011;11135;54.192;15.670;2023-08-06T17:21:51;9.55;;;1.75;;
21941;SDS011;11135;54.192;15.670;2023-08-06T17:25:00;18.15;;;2.30;;
21941;SDS011;11135;54.192;15.670;2023-08-06T17:28:07;14.52;;;2.33;;
21941;SDS011;11135;54.192;15.670;2023-08-06T17:31:13;9.65;;;2.38;;
21941;SDS011;11135;54.192;15.670;2023-08-06T17:34:21;17.77;;;3.22;;
21941;SDS011;11135;54.192;15.670;2023-08-06T17:37:34;10.40;;;1.75;;
21941;SDS011;11135;54.192;15.670;2023-08-06T17:40:41;14.70;;;2.25;;
21941;SDS011;11135;54.192;15.670;2023-08-06T17:43:52;7.70;;;1.85;;
21941;SDS011;11135;54.192;15.670;2023-08-06T17:47:00;10.77;;;2.00;;
21941;SDS011;11135;54.192;15.670;2023-08-06T17:50:09;5.18;;;1.85;;
21941;SDS011;11135;54.192;15.670;2023-08-06T17:53:21;8.63;;;1.98;;
21941;SDS011;11135;54.192;15.670;2023-08-06T17:56:34;10.77;;;1.67;;
21941;SDS011;11135;54.192;15.670;2023-08-06T17:59:40;8.07;;;1.83;;
21941;SDS011;11135;54.192;15.670;2023-08-06T18:02:47;8.77;;;1.67;;
21941;SDS011;11135;54.192;15.670;2023-08-06T18:05:55;19.17;;;2.58;;
21941;SDS011;11135;54.192;15.670;2023-08-06T18:09:05;6.78;;;1.52;;
21941;SDS011;11135;54.192;15.670;2023-08-06T18:12:12;6.60;;;1.23;;
21941;SDS011;11135;54.192;15.670;2023-08-06T18:15:19;7.20;;;1.02;;
21941;SDS011;11135;54.192;15.670;2023-08-06T18:18:28;11.27;;;2.00;;
21941;SDS011;11135;54.192;15.670;2023-08-06T18:21:34;6.38;;;1.67;;
21941;SDS011;11135;54.192;15.670;2023-08-06T18:24:44;10.90;;;1.73;;
21941;SDS011;11135;54.192;15.670;2023-08-06T18:27:51;10.10;;;1.95;;
21941;SDS011;11135;54.192;15.670;2023-08-06T18:31:01;11.25;;;2.88;;
21941;SDS011;11135;54.192;15.670;2023-08-06T18:34:10;16.60;;;1.88;;
21941;SDS011;11135;54.192;15.670;2023-08-06T18:37:21;14.68;;;2.03;;